Time;durP1;ratioP1;P1;durP2;ratioP2;P2;SDS_P1;SDS_P2;PMS_P1;PMS_P2;Temp;Humidity;BMP_temperature;BMP_pressure;BME280_temperature;BME280_humidity;BME280_pressure;Samples;Min_cycle;Max_cycle;Signal;HPM_P1;HPM_P2
2023/03/25 00:02:09;;;;;;;4.05;1.65;;;;;;;18.15;54.47;99871.53;5111999;28;20042;-64
2023/03/25 00:04:38;;;;;;;4.72;1.70;;;;;;;18.20;54.10;99873.97;5113089;28;20027;-65
2023/03/25 00:07:03;;;;;;;3.35;1.67;;;;;;;18.21;54.23;99886.28;5115654;28;20118;-62
2023/03/25 00:09:29;;;;;;;4.68;1.70;;;;;;;18.19;54.00;99873.13;5116168;28;20173;-64
2023/03/25 00:11:55;;;;;;;3.53;1.70;;;;;;;18.18;54.08;99873.19;5116086;27;20032;-65
2023/03/25 00:14:20;;;;;;;3.13;1.70;;;;;;;18.17;54.45;99885.56;5115878;28;20434;-64
2023/03/25 00:16:47;;;;;;;3.60;1.80;;;;;;;18.15;54.08;99879.47;5115775;28;20012;-64
2023/03/25 00:19:14;;;;;;;3.67;1.50;;;;;;;18.15;54.12;99887.38;5115804;28;20077;-64
2023/03/25 00:21:43;;;;;;;5.22;1.90;;;;;;;18.13;54.47;99888.38;5115559;28;20027;-64
2023/03/25 00:24:11;;;;;;;3.90;1.70;;;;;;;18.10;54.56;99894.63;5115618;28;20436;-64
2023/03/25 00:26:41;;;;;;;3.00;1.70;;;;;;;18.07;54.39;99887.69;5115587;28;20050;-64
2023/03/25 00:29:09;;;;;;;4.90;1.85;;;;;;;18.10;54.31;99903.44;5115803;28;20020;-64
2023/03/25 00:31:35;;;;;;;3.38;1.55;;;;;;;18.07;54.43;99900.91;5115504;28;20085;-64
2023/03/25 00:34:00;;;;;;;2.92;1.60;;;;;;;18.08;54.47;99900.00;5115607;28;20032;-64
2023/03/25 00:36:26;;;;;;;4.85;1.95;;;;;;;18.10;54.35;99894.63;5113805;28;20436;-64
2023/03/25 00:38:52;;;;;;;3.65;1.50;;;;;;;18.08;54.41;99892.09;5115545;28;20027;-64
2023/03/25 00:41:24;;;;;;;3.78;1.73;;;;;;;18.10;54.37;99892.00;5115317;28;20369;-64
2023/03/25 00:43:57;;;;;;;4.95;1.80;;;;;;;18.08;54.26;99899.13;5115113;28;20047;-64
2023/03/25 00:46:25;;;;;;;4.28;1.80;;;;;;;18.07;54.30;99905.34;5115488;28;20508;-64
2023/03/25 00:48:51;;;;;;;5.00;1.73;;;;;;;18.07;54.00;99915.91;5115111;28;20485;-64
2023/03/25 00:51:21;;;;;;;4.15;1.88;;;;;;;18.04;54.20;99927.41;5114937;27;20476;-64
2023/03/25 00:53:51;;;;;;;3.85;1.90;;;;;;;18.06;54.14;99922.13;5115351;28;20370;-64
2023/03/25 00:56:17;;;;;;;4.38;1.88;;;;;;;18.04;54.30;99915.97;5115085;28;20466;-65
2023/03/25 00:58:42;;;;;;;3.35;1.40;;;;;;;18.04;54.20;99910.69;5115041;28;20016;-64
2023/03/25 01:01:12;;;;;;;2.67;1.40;;;;;;;18.05;54.17;99912.41;5115164;28;20026;-64
2023/03/25 01:03:38;;;;;;;3.72;1.40;;;;;;;18.05;54.10;99915.06;5114748;28;20024;-64
2023/03/25 01:06:12;;;;;;;3.88;1.58;;;;;;;18.02;54.17;99923.97;5114591;27;20080;-64
2023/03/25 01:08:39;;;;;;;3.20;2.03;;;;;;;18.01;54.17;99921.41;5114862;28;20103;-64
2023/03/25 01:11:05;;;;;;;3.30;1.55;;;;;;;17.98;54.22;99917.94;5114868;27;20027;-64
2023/03/25 01:13:31;;;;;;;3.13;1.65;;;;;;;17.96;54.14;99917.16;5114776;28;20481;-69
2023/03/25 01:15:56;;;;;;;3.60;1.65;;;;;;;17.97;54.39;99926.81;5114413;28;20027;-65
2023/03/25 01:18:22;;;;;;;5.05;2.05;;;;;;;17.98;54.46;99925.88;5113467;28;20103;-64
2023/03/25 01:20:48;;;;;;;3.78;1.88;;;;;;;17.96;54.14;99913.66;5114521;28;20055;-64
2023/03/25 01:23:13;;;;;;;4.57;1.63;;;;;;;17.95;54.27;99896.97;5114325;28;20106;-64
2023/03/25 01:25:39;;;;;;;3.35;1.63;;;;;;;17.94;54.31;99895.25;5114281;28;20536;-64
2023/03/25 01:28:05;;;;;;;3.25;1.52;;;;;;;17.93;54.29;99904.06;5114397;28;20031;-64
2023/03/25 01:30:30;;;;;;;3.22;1.50;;;;;;;17.93;53.96;99887.41;5114475;28;20020;-64
2023/03/25 01:32:56;;;;;;;4.40;2.03;;;;;;;17.94;54.32;99891.75;5114181;28;20069;-64
2023/03/25 01:35:21;;;;;;;3.40;1.85;;;;;;;17.93;54.01;99888.22;5114014;28;20019;-64
2023/03/25 01:37:47;;;;;;;2.50;1.30;;;;;;;17.94;54.26;99889.09;5114159;28;20057;-64
2023/03/25 01:40:19;;;;;;;3.13;1.38;;;;;;;17.93;54.35;99890.03;5113160;28;20027;-64
2023/03/25 01:42:45;;;;;;;3.40;1.63;;;;;;;17.93;53.97;99882.94;5114283;28;20032;-64
2023/03/25 01:45:27;;;;;;;3.38;1.60;;;;;;;17.91;54.30;99882.16;5114100;28;20507;-64
2023/03/25 01:48:09;;;;;;;2.58;1.35;;;;;;;17.91;54.29;99878.69;5114350;28;20028;-64
2023/03/25 01:50:42;;;;;;;3.95;1.85;;;;;;;17.89;54.03;99873.47;5113757;28;20389;-64
2023/03/25 01:53:09;;;;;;;3.45;1.58;;;;;;;17.89;54.08;99865.53;5114175;28;20076;-64
2023/03/25 01:55:36;;;;;;;4.78;1.90;;;;;;;17.89;53.93;99876.09;5113760;28;20522;-64
2023/03/25 01:58:06;;;;;;;3.47;1.55;;;;;;;17.86;54.02;99873.56;5113950;28;20022;-64
2023/03/25 02:00:32;;;;;;;3.33;1.63;;;;;;;17.85;54.16;99875.38;5113890;28;20099;-64
2023/03/25 02:03:00;;;;;;;3.30;1.38;;;;;;;17.85;54.06;99871.88;5113631;28;20034;-65
2023/03/25 02:05:38;;;;;;;4.10;1.58;;;;;;;17.87;54.15;99871.81;5113517;28;20055;-64
2023/03/25 02:08:05;;;;;;;3.30;1.30;;;;;;;17.87;54.33;99877.94;5112586;28;20024;-65
2023/03/25 02:10:32;;;;;;;4.53;1.73;;;;;;;17.90;54.27;99871.66;5113884;28;20049;-64
2023/03/25 02:12:58;;;;;;;4.35;1.65;;;;;;;17.86;54.37;99860.38;5113737;28;20038;-64
2023/03/25 02:15:24;;;;;;;3.33;1.55;;;;;;;17.85;54.41;99869.22;5113684;28;20080;-65
2023/03/25 02:18:01;;;;;;;2.47;1.40;;;;;;;17.85;54.03;99872.72;5113473;28;20568;-64
2023/03/25 02:21:01;;;;;;;3.55;1.55;;;;;;;17.85;53.99;99866.59;5113605;28;20037;-64
2023/03/25 02:23:56;;;;;;;4.07;1.80;;;;;;;17.84;54.23;99872.78;5113352;28;20039;-64
2023/03/25 02:26:55;;;;;;;2.95;1.40;;;;;;;17.83;54.16;99868.44;5113442;28;20031;-64
2023/03/25 02:29:32;;;;;;;3.58;1.65;;;;;;;17.81;54.05;99863.22;5113071;28;20039;-64
2023/03/25 02:32:32;;;;;;;3.92;1.40;;;;;;;17.80;54.41;99860.63;5113040;28;20047;-64
2023/03/25 02:34:57;;;;;;;3.28;1.58;;;;;;;17.80;53.99;99852.72;5113493;28;20016;-64
2023/03/25 02:37:32;;;;;;;4.10;1.90;;;;;;;17.78;54.05;99851.94;5113278;28;20031;-64
2023/03/25 02:40:14;;;;;;;2.97;1.48;;;;;;;17.80;54.00;99850.06;5113210;28;20016;-64
2023/03/25 02:42:45;;;;;;;2.95;1.40;;;;;;;17.78;54.23;99852.78;5113104;28;20670;-64
2023/03/25 02:45:22;;;;;;;3.00;1.60;;;;;;;17.77;54.20;99855.50;5112966;28;20401;-64
2023/03/25 02:47:53;;;;;;;3.47;1.25;;;;;;;17.76;54.46;99848.47;5112693;28;20027;-64
2023/03/25 02:50:25;;;;;;;3.17;1.38;;;;;;;17.78;54.08;99849.28;5112828;28;20020;-64
2023/03/25 02:52:56;;;;;;;4.47;1.65;;;;;;;17.77;54.31;99834.38;5112995;28;20031;-64
2023/03/25 02:55:24;;;;;;;4.10;1.50;;;;;;;17.77;54.28;99834.38;5112580;28;20035;-64
2023/03/25 02:57:56;;;;;;;3.08;1.40;;;;;;;17.75;54.07;99841.47;5112930;28;20039;-64
2023/03/25 03:00:25;;;;;;;3.53;1.52;;;;;;;17.74;54.30;99839.78;5112951;28;20435;-64
2023/03/25 03:03:00;;;;;;;3.70;1.40;;;;;;;17.71;54.19;99841.63;5112315;28;20039;-64
2023/03/25 03:05:26;;;;;;;2.53;1.35;;;;;;;17.70;54.39;99839.03;5112907;28;20027;-65
2023/03/25 03:08:13;;;;;;;3.35;1.38;;;;;;;17.71;54.34;99835.47;5112675;28;20548;-64
2023/03/25 03:11:12;;;;;;;3.63;1.63;;;;;;;17.74;54.04;99842.41;5112500;28;20015;-63
2023/03/25 03:14:07;;;;;;;3.63;1.80;;;;;;;17.71;54.33;99841.63;5112683;28;20115;-64
2023/03/25 03:16:36;;;;;;;2.80;1.40;;;;;;;17.70;54.26;99844.31;5098578;28;20086;-64
2023/03/25 03:19:06;;;;;;;2.38;1.27;;;;;;;17.66;54.14;99843.59;5112505;28;20034;-64
2023/03/25 03:21:42;;;;;;;3.38;1.42;;;;;;;17.66;54.42;99843.59;5112321;28;20038;-64
2023/03/25 03:24:16;;;;;;;2.88;1.40;;;;;;;17.66;54.23;99853.28;5112182;28;20031;-64
2023/03/25 03:26:54;;;;;;;1.80;1.00;;;;;;;17.64;54.38;99855.13;5112470;28;20035;-64
2023/03/25 03:29:28;;;;;;;2.67;1.38;;;;;;;17.62;54.44;99855.19;5112341;28;20146;-64
2023/03/25 03:31:58;;;;;;;3.00;1.45;;;;;;;17.61;54.10;99856.13;5111922;28;20046;-64
2023/03/25 03:34:29;;;;;;;4.60;1.92;;;;;;;17.60;54.08;99859.69;5112097;28;20100;-64
2023/03/25 03:36:58;;;;;;;2.78;1.40;;;;;;;17.60;54.33;99854.41;5112278;28;20032;-64
2023/03/25 03:39:35;;;;;;;3.03;1.50;;;;;;;17.60;54.41;99864.94;5114759;28;20098;-64
2023/03/25 03:42:25;;;;;;;3.25;1.50;;;;;;;17.60;54.55;99854.41;5116433;28;20027;-64
2023/03/25 03:44:55;;;;;;;3.80;1.50;;;;;;;17.58;54.22;99864.16;5053162;28;20176;-64
2023/03/25 03:47:25;;;;;;;3.45;1.67;;;;;;;17.56;54.03;99872.13;5053437;28;20041;-64
2023/03/25 03:49:58;;;;;;;2.10;1.38;;;;;;;17.60;54.04;99879.91;5053213;28;20051;-64
2023/03/25 03:52:36;;;;;;;3.03;1.40;;;;;;;17.56;54.13;99880.06;5053191;28;20036;-64
2023/03/25 03:55:17;;;;;;;2.85;1.30;;;;;;;17.57;54.31;99880.91;5053332;28;20057;-64
2023/03/25 03:57:57;;;;;;;3.63;1.20;;;;;;;17.54;53.97;99862.56;5053391;28;20040;-64
2023/03/25 04:00:40;;;;;;;3.45;1.20;;;;;;;17.55;54.31;99872.19;5052970;28;20039;-64
2023/03/25 04:03:14;;;;;;;2.70;1.20;;;;;;;17.58;54.16;99872.09;5053153;28;20041;-64
2023/03/25 04:05:46;;;;;;;4.13;1.55;;;;;;;17.55;54.28;99877.47;5053392;28;20106;-64
2023/03/25 04:08:27;;;;;;;3.78;1.65;;;;;;;17.53;54.48;99860.84;5036669;28;20043;-64
2023/03/25 04:11:02;;;;;;;3.53;1.30;;;;;;;17.51;54.39;99862.66;5052859;28;20033;-64
2023/03/25 04:13:34;;;;;;;4.55;1.48;;;;;;;17.52;54.43;99859.09;5053039;28;20025;-64
2023/03/25 04:15:59;;;;;;;3.40;1.48;;;;;;;17.49;54.09;99853.97;5052824;28;20139;-64
2023/03/25 04:18:27;;;;;;;2.50;1.40;;;;;;;17.48;54.03;99865.44;5053083;28;20028;-64
2023/03/25 04:20:53;;;;;;;2.40;1.30;;;;;;;17.48;54.42;99862.81;5056589;28;20032;-64
2023/03/25 04:23:20;;;;;;;2.85;1.52;;;;;;;17.47;54.09;99869.84;5115648;28;20024;-64
2023/03/25 04:25:48;;;;;;;2.95;1.35;;;;;;;17.48;54.45;99861.00;5115944;28;20016;-64
2023/03/25 04:28:16;;;;;;;2.83;1.20;;;;;;;17.47;54.13;99864.56;5115016;27;20102;-65
2023/03/25 04:30:44;;;;;;;2.97;1.42;;;;;;;17.48;54.44;99865.44;5115765;28;20077;-64
2023/03/25 04:33:10;;;;;;;3.28;1.30;;;;;;;17.47;54.32;99869.84;5115331;28;20035;-65
2023/03/25 04:35:36;;;;;;;2.63;1.30;;;;;;;17.49;54.14;99872.44;5115436;28;20485;-64
2023/03/25 04:38:02;;;;;;;2.95;1.00;;;;;;;17.48;54.42;99873.38;5115380;28;20027;-64
2023/03/25 04:40:28;;;;;;;2.40;1.02;;;;;;;17.48;54.09;99865.44;5115561;28;20024;-64
2023/03/25 04:42:55;;;;;;;4.20;1.50;;;;;;;17.47;54.26;99874.28;5114955;28;20083;-64
2023/03/25 04:45:21;;;;;;;3.05;1.30;;;;;;;17.45;54.07;99872.53;5115264;28;20023;-64
2023/03/25 04:47:48;;;;;;;3.22;1.20;;;;;;;17.44;54.13;99878.75;5114099;28;20030;-63
2023/03/25 04:50:21;;;;;;;3.25;1.80;;;;;;;17.44;54.43;99876.09;5114311;28;20024;-64
2023/03/25 04:52:51;;;;;;;3.42;1.52;;;;;;;17.41;54.15;99881.53;5115181;28;20027;-64
2023/03/25 04:55:18;;;;;;;2.53;1.33;;;;;;;17.42;54.44;99885.88;5115268;28;20069;-64
2023/03/25 04:57:48;;;;;;;4.00;1.55;;;;;;;17.41;54.39;99889.44;5114791;28;20027;-64
2023/03/25 05:00:16;;;;;;;3.10;1.45;;;;;;;17.41;54.05;99889.44;5114904;28;20107;-64
2023/03/25 05:02:44;;;;;;;2.97;1.30;;;;;;;17.38;54.03;99892.19;5114822;28;20480;-64
2023/03/25 05:05:17;;;;;;;2.90;1.30;;;;;;;17.39;54.40;99896.53;5115025;28;20081;-64
2023/03/25 05:07:53;;;;;;;3.42;1.40;;;;;;;17.38;54.15;99901.88;5114874;28;20031;-64
2023/03/25 05:10:24;;;;;;;2.63;1.30;;;;;;;17.38;53.96;99886.91;5114903;28;20035;-64
2023/03/25 05:13:06;;;;;;;3.17;1.45;;;;;;;17.35;54.27;99876.50;5114245;28;20028;-64
2023/03/25 05:15:42;;;;;;;2.25;1.20;;;;;;;17.34;54.16;99874.75;5114573;28;20030;-64
2023/03/25 05:18:09;;;;;;;;;;;;;;;17.35;54.32;99876.50;5115283;28;20088;-64
2023/03/25 05:20:38;;;;;;;3.00;1.27;;;;;;;17.35;54.10;99881.75;5114765;28;19976;-64
2023/03/25 05:23:11;;;;;;;2.85;1.20;;;;;;;17.35;54.26;99881.75;5114627;28;20084;-64
2023/03/25 05:25:40;;;;;;;2.78;1.20;;;;;;;17.34;54.32;99887.09;5114550;28;20030;-64
2023/03/25 05:28:08;;;;;;;2.55;1.25;;;;;;;17.33;54.18;99888.03;5113869;28;20031;-64
2023/03/25 05:30:38;;;;;;;2.92;1.38;;;;;;;17.35;54.29;99902.00;5114423;28;20103;-64
2023/03/25 05:33:04;;;;;;;2.72;1.40;;;;;;;17.33;54.07;99895.94;5114250;28;20040;-64
2023/03/25 05:35:30;;;;;;;2.35;1.10;;;;;;;17.30;54.26;99905.66;5114406;28;20430;-64
2023/03/25 05:37:55;;;;;;;2.95;1.60;;;;;;;17.32;54.14;99910.88;5114292;28;20106;-64
2023/03/25 05:40:21;;;;;;;4.40;1.58;;;;;;;17.31;54.33;99914.44;5114250;28;20044;-63
2023/03/25 05:42:47;;;;;;;2.55;1.40;;;;;;;17.33;54.11;99904.69;5113718;28;20027;-64
2023/03/25 05:45:14;;;;;;;2.45;1.25;;;;;;;17.31;54.01;99911.81;5114313;28;20404;-65
2023/03/25 05:47:40;;;;;;;3.10;1.30;;;;;;;17.31;54.32;99922.34;5114211;28;20484;-64
2023/03/25 05:50:07;;;;;;;2.53;1.10;;;;;;;17.31;53.96;99914.44;5113019;28;20057;-64
2023/03/25 05:52:32;;;;;;;3.55;1.30;;;;;;;17.29;54.47;99918.94;5113810;28;20042;-63
2023/03/25 05:54:57;;;;;;;2.97;1.40;;;;;;;17.30;53.89;99923.28;5114099;28;20016;-64
2023/03/25 05:57:23;;;;;;;3.35;1.42;;;;;;;17.28;54.06;99925.09;5113636;28;20027;-64
2023/03/25 05:59:48;;;;;;;2.85;1.23;;;;;;;17.27;54.25;99928.66;5113899;28;20023;-64
2023/03/25 06:02:15;;;;;;;2.60;1.17;;;;;;;17.24;54.00;99921.72;5112587;28;20096;-64
2023/03/25 06:04:41;;;;;;;2.45;1.15;;;;;;;17.23;54.42;99927.09;5113788;28;20024;-64
2023/03/25 06:07:18;;;;;;;2.65;1.20;;;;;;;17.23;54.15;99929.72;5113725;28;20429;-64
2023/03/25 06:09:48;;;;;;;2.65;1.10;;;;;;;17.25;54.31;99926.06;5113301;27;20507;-65
2023/03/25 06:12:16;;;;;;;3.97;1.20;;;;;;;17.25;54.15;99927.88;5113616;28;20035;-64
2023/03/25 06:14:44;;;;;;;2.22;1.17;;;;;;;17.25;54.26;99934.00;5113424;28;20085;-64
2023/03/25 06:17:10;;;;;;;2.15;1.00;;;;;;;17.23;54.32;99930.56;5113442;28;20019;-64
2023/03/25 06:19:38;;;;;;;3.13;1.52;;;;;;;17.25;54.06;99934.00;5113400;28;20381;-64
2023/03/25 06:22:08;;;;;;;3.13;1.27;;;;;;;17.24;54.20;99936.69;5113380;28;20028;-64
2023/03/25 06:24:35;;;;;;;3.53;1.38;;;;;;;17.23;54.03;99941.09;5113044;28;20024;-64
2023/03/25 06:27:00;;;;;;;2.55;1.30;;;;;;;17.23;54.42;99950.81;5113410;28;20077;-65
2023/03/25 06:29:26;;;;;;;2.70;1.33;;;;;;;17.24;54.11;99941.97;5113487;28;20016;-64
2023/03/25 06:31:51;;;;;;;2.67;1.20;;;;;;;17.24;54.44;99937.53;5111924;28;20039;-64
2023/03/25 06:34:17;;;;;;;2.50;0.88;;;;;;;17.25;54.26;99941.06;5113542;28;20027;-64
2023/03/25 06:36:42;;;;;;;2.83;1.20;;;;;;;17.26;54.18;99942.78;5113377;28;20057;-64
2023/03/25 06:39:09;;;;;;;3.78;1.30;;;;;;;17.25;54.12;99944.53;5112944;28;20423;-64
2023/03/25 06:41:35;;;;;;;2.35;1.20;;;;;;;17.26;53.87;99955.97;5113211;28;20028;-64
2023/03/25 06:44:01;;;;;;;3.17;1.20;;;;;;;17.28;54.14;99962.03;5112873;28;20065;-64
2023/03/25 06:46:26;;;;;;;3.30;1.30;;;;;;;17.27;54.04;99957.66;5113187;28;20016;-64
2023/03/25 06:48:51;;;;;;;2.53;1.10;;;;;;;17.24;54.00;99963.91;5112823;28;20541;-63
2023/03/25 06:51:17;;;;;;;2.90;1.10;;;;;;;17.25;53.95;99962.16;5112944;28;20028;-64
2023/03/25 06:53:42;;;;;;;2.55;1.20;;;;;;;17.26;54.15;99961.22;5112593;28;20157;-64
2023/03/25 06:56:08;;;;;;;3.15;1.27;;;;;;;17.24;54.28;99965.72;5112930;28;20019;-64
2023/03/25 06:58:34;;;;;;;3.50;1.25;;;;;;;17.25;54.12;99960.34;5112891;28;20019;-64
2023/03/25 07:01:04;;;;;;;2.75;1.13;;;;;;;17.26;54.16;99958.59;5113060;28;20036;-64
2023/03/25 07:03:30;;;;;;;2.03;1.10;;;;;;;17.24;54.07;99956.00;5112550;28;20042;-64
2023/03/25 07:05:55;;;;;;;2.22;1.10;;;;;;;17.26;53.97;99954.19;5112618;28;20088;-64
2023/03/25 07:08:20;;;;;;;2.70;1.13;;;;;;;17.28;54.06;99959.38;5112325;28;20107;-65
2023/03/25 07:10:46;;;;;;;2.20;0.88;;;;;;;17.28;54.02;99954.13;5112673;28;20019;-64
2023/03/25 07:13:11;;;;;;;3.28;1.30;;;;;;;17.26;53.96;99956.84;5112263;28;20020;-64
2023/03/25 07:15:37;;;;;;;2.60;1.38;;;;;;;17.31;54.14;99956.66;5112505;28;20115;-64
2023/03/25 07:18:03;;;;;;;3.72;1.00;;;;;;;17.32;54.10;99958.38;5112589;27;20032;-64
2023/03/25 07:20:28;;;;;;;2.60;1.10;;;;;;;17.32;53.67;99961.00;5112555;28;20536;-64
2023/03/25 07:22:54;;;;;;;1.80;1.02;;;;;;;17.31;53.71;99965.44;5112101;28;20084;-64
2023/03/25 07:25:21;;;;;;;2.92;1.50;;;;;;;17.29;53.81;99961.13;5112578;28;20034;-64
2023/03/25 07:27:46;;;;;;;3.42;1.23;;;;;;;17.32;53.97;99958.38;5112427;28;20019;-64
2023/03/25 07:30:12;;;;;;;3.28;1.10;;;;;;;17.34;53.93;99968.88;5112400;28;20027;-64
2023/03/25 07:32:38;;;;;;;2.85;1.25;;;;;;;17.35;54.02;99965.31;5112163;28;20105;-63
2023/03/25 07:35:05;;;;;;;2.55;1.10;;;;;;;17.35;53.73;99966.19;5112221;28;20047;-64
2023/03/25 07:37:31;;;;;;;2.83;1.25;;;;;;;17.33;53.50;99968.00;5111886;28;20040;-64
2023/03/25 07:39:56;;;;;;;2.75;1.00;;;;;;;17.35;53.91;99976.72;5112263;28;20100;-64
2023/03/25 07:42:21;;;;;;;2.72;1.20;;;;;;;17.39;53.73;99974.84;5112439;28;20442;-64
2023/03/25 07:44:47;;;;;;;2.78;1.10;;;;;;;17.37;53.64;99969.59;5112393;28;20032;-64
2023/03/25 07:47:12;;;;;;;3.00;1.40;;;;;;;17.41;53.61;99965.94;5112343;28;20477;-64
2023/03/25 07:49:41;;;;;;;3.30;1.25;;;;;;;17.41;53.70;99971.22;5112339;28;20031;-64
2023/03/25 07:52:07;;;;;;;2.97;1.27;;;;;;;17.48;53.45;99970.97;5111756;28;20069;-64
2023/03/25 07:54:32;;;;;;;2.80;1.15;;;;;;;17.48;53.44;99974.47;5112277;28;20023;-64
2023/03/25 07:56:58;;;;;;;2.88;1.17;;;;;;;17.50;53.35;99974.41;5112213;28;20031;-64
2023/03/25 07:59:24;;;;;;;2.50;1.20;;;;;;;17.50;53.48;99970.00;5112062;28;20039;-64
2023/03/25 08:01:50;;;;;;;3.00;1.20;;;;;;;17.52;53.49;99973.44;5110866;28;20114;-64
2023/03/25 08:04:15;;;;;;;3.15;1.38;;;;;;;17.55;53.42;99956.63;5112131;28;20106;-64
2023/03/25 08:06:41;;;;;;;1.50;0.80;;;;;;;17.54;53.35;99949.63;5111850;28;20024;-64
2023/03/25 08:09:06;;;;;;;2.75;1.10;;;;;;;17.56;53.01;99948.66;5112350;28;20035;-64
2023/03/25 08:11:32;;;;;;;2.47;1.17;;;;;;;17.58;53.33;99959.16;5111976;28;20024;-64
2023/03/25 08:13:57;;;;;;;2.55;1.05;;;;;;;17.61;53.28;99966.06;5111826;28;20404;-64
2023/03/25 08:16:23;;;;;;;2.33;1.10;;;;;;;17.57;53.03;99967.97;5112138;28;20027;-64
2023/03/25 08:18:51;;;;;;;1.63;0.88;;;;;;;17.59;53.36;99963.53;5111944;28;20427;-64
2023/03/25 08:21:23;;;;;;;2.60;1.20;;;;;;;17.62;53.00;99966.03;5111712;28;20019;-64
2023/03/25 08:23:57;;;;;;;2.42;1.10;;;;;;;17.60;53.41;99962.59;5111815;28;20028;-64
2023/03/25 08:26:25;;;;;;;2.30;0.88;;;;;;;17.64;53.07;99971.25;5114193;28;20027;-64
2023/03/25 08:28:53;;;;;;;2.80;0.98;;;;;;;17.64;53.06;99963.34;5115658;28;20092;-64
2023/03/25 08:31:20;;;;;;;3.08;1.20;;;;;;;17.65;52.99;99965.91;5115561;28;20055;-65
2023/03/25 08:33:46;;;;;;;2.30;1.00;;;;;;;17.66;53.02;99959.72;5115478;28;20132;-64
2023/03/25 08:36:13;;;;;;;2.00;1.05;;;;;;;17.65;52.90;99962.41;5115277;27;20386;-64
2023/03/25 08:38:40;;;;;;;2.10;0.98;;;;;;;17.66;53.12;99954.44;5115593;28;20036;-64
2023/03/25 08:41:06;;;;;;;2.53;0.90;;;;;;;17.67;53.01;99958.78;5115436;28;20481;-64
2023/03/25 08:43:31;;;;;;;2.88;1.10;;;;;;;17.71;53.19;99965.69;5115296;28;20084;-64
2023/03/25 08:45:57;;;;;;;2.97;1.10;;;;;;;17.69;53.03;99962.22;5115397;28;20027;-64
2023/03/25 08:48:23;;;;;;;2.55;0.90;;;;;;;17.71;53.05;99955.13;5115448;28;20019;-64
2023/03/25 08:50:49;;;;;;;3.28;1.20;;;;;;;17.75;53.21;99957.63;5114918;28;20070;-64
2023/03/25 08:53:14;;;;;;;2.13;0.80;;;;;;;17.77;52.89;99947.88;5115195;28;20051;-64
2023/03/25 08:55:40;;;;;;;2.72;1.30;;;;;;;17.77;52.90;99951.38;5115126;28;20057;-64
2023/03/25 08:58:06;;;;;;;2.50;1.10;;;;;;;17.78;53.11;99941.69;5115113;28;20028;-64
2023/03/25 09:00:33;;;;;;;2.65;1.08;;;;;;;17.77;52.87;99950.53;5115205;28;20027;-64
2023/03/25 09:02:59;;;;;;;2.95;1.00;;;;;;;17.77;52.69;99953.16;5115035;28;20106;-64
2023/03/25 09:05:25;;;;;;;3.30;1.33;;;;;;;17.79;52.68;99953.94;5114548;28;20541;-64
2023/03/25 09:07:51;;;;;;;2.13;1.08;;;;;;;17.80;52.84;99955.66;5114930;28;20024;-64
2023/03/25 09:10:17;;;;;;;2.75;1.02;;;;;;;17.81;52.81;99946.81;5114974;28;20028;-64
2023/03/25 09:12:43;;;;;;;2.95;1.15;;;;;;;17.81;52.71;99945.06;5114950;28;20020;-64
2023/03/25 09:15:10;;;;;;;2.90;1.10;;;;;;;17.81;53.14;99946.81;5114696;27;20031;-64
2023/03/25 09:17:35;;;;;;;4.40;1.33;;;;;;;17.82;52.85;99953.84;5114576;28;20024;-64
2023/03/25 09:20:01;;;;;;;3.20;1.27;;;;;;;17.83;52.99;99951.13;5114496;27;20045;-64
2023/03/25 09:22:26;;;;;;;2.15;0.85;;;;;;;17.85;53.00;99953.69;5114595;28;20020;-64
2023/03/25 09:24:52;;;;;;;2.38;1.02;;;;;;;17.86;53.10;99939.56;5114671;28;20031;-64
2023/03/25 09:27:17;;;;;;;2.47;1.08;;;;;;;17.87;53.12;99922.81;5114566;28;20022;-64
2023/03/25 09:29:43;;;;;;;3.80;1.20;;;;;;;17.88;52.65;99927.19;5114476;28;20030;-64
2023/03/25 09:32:08;;;;;;;2.42;1.20;;;;;;;17.90;52.96;99935.91;5113191;28;20123;-64
2023/03/25 09:34:34;;;;;;;3.78;1.55;;;;;;;17.90;52.70;99935.91;5114148;28;20055;-64
2023/03/25 09:37:02;;;;;;;2.40;1.10;;;;;;;17.92;52.67;99927.94;5114170;28;20034;-64
2023/03/25 09:39:27;;;;;;;2.03;1.02;;;;;;;17.93;52.80;99933.13;5114503;28;20103;-64
2023/03/25 09:42:11;;;;;;;2.90;1.15;;;;;;;17.95;52.92;99925.13;5114312;28;20103;-64
2023/03/25 09:45:03;;;;;;;4.97;0.90;;;;;;;17.96;52.98;99919.81;5114243;28;20081;-64
2023/03/25 09:47:32;;;;;;;3.33;1.00;;;;;;;17.95;52.97;99912.81;5113938;28;20064;-64
2023/03/25 09:50:01;;;;;;;3.67;1.23;;;;;;;17.97;52.95;99915.41;5114391;28;20027;-64
2023/03/25 09:52:59;;;;;;;2.13;1.15;;;;;;;18.00;52.72;99909.13;5114109;28;20034;-64
2023/03/25 09:55:31;;;;;;;2.15;0.90;;;;;;;18.00;52.79;99906.50;5051133;28;20041;-64
2023/03/25 09:58:17;;;;;;;2.40;0.93;;;;;;;18.01;52.97;99916.97;5051128;28;20102;-64
2023/03/25 10:00:44;;;;;;;4.90;1.20;;;;;;;18.03;52.89;99906.34;5051039;28;20041;-64
2023/03/25 10:03:41;;;;;;;2.47;1.05;;;;;;;18.03;52.69;99901.06;5050561;28;20501;-65
2023/03/25 10:06:14;;;;;;;;;;;;;;;18.06;52.47;99907.09;5051438;28;20041;-64
2023/03/25 10:09:17;;;;;;;2.80;1.10;;;;;;;18.08;52.90;99912.34;5050939;28;19913;-64
2023/03/25 10:12:04;;;;;;;4.55;1.10;;;;;;;18.07;52.65;99914.09;5050757;28;20156;-64
2023/03/25 10:14:55;;;;;;;3.00;1.05;;;;;;;18.09;52.50;99911.41;5050896;28;20044;-64
2023/03/25 10:17:55;;;;;;;1.85;1.00;;;;;;;18.11;52.57;99904.25;5049815;28;20174;-65
2023/03/25 10:20:59;;;;;;;5.65;1.25;;;;;;;18.11;52.59;99906.91;5050701;28;20043;-64
2023/03/25 10:23:33;;;;;;;2.65;1.17;;;;;;;18.15;52.74;99897.09;4991247;28;20105;-64
2023/03/25 10:26:05;;;;;;;3.90;1.10;;;;;;;18.14;52.81;99896.22;4991118;28;20042;-64
2023/03/25 10:28:37;;;;;;;2.78;1.10;;;;;;;18.17;52.54;99884.69;4995872;28;20041;-64
2023/03/25 10:31:05;;;;;;;2.90;0.98;;;;;;;18.17;52.58;99874.97;5010436;28;20071;-64
2023/03/25 10:33:53;;;;;;;2.95;1.00;;;;;;;18.19;52.85;99878.41;5069530;28;20044;-64
2023/03/25 10:36:32;;;;;;;3.95;1.33;;;;;;;18.20;52.50;99869.56;5070355;28;20071;-64
2023/03/25 10:39:00;;;;;;;3.70;1.33;;;;;;;18.20;52.67;99874.84;5070282;28;20041;-63
2023/03/25 10:41:34;;;;;;;4.03;1.48;;;;;;;18.22;52.69;99878.25;5070085;28;20537;-64
2023/03/25 10:44:00;;;;;;;2.80;1.20;;;;;;;18.22;52.73;99878.25;5069849;28;20161;-64
2023/03/25 10:46:25;;;;;;;3.35;1.13;;;;;;;18.24;52.76;99871.16;5070002;28;20119;-64
2023/03/25 10:48:51;;;;;;;3.33;1.30;;;;;;;18.24;52.50;99865.88;5069621;28;20054;-64
2023/03/25 10:51:20;;;;;;;4.88;1.17;;;;;;;18.27;52.49;99874.56;5070090;28;20032;-64
2023/03/25 10:53:51;;;;;;;3.22;1.20;;;;;;;18.28;52.66;99865.72;5069902;28;20024;-64
2023/03/25 10:56:43;;;;;;;4.32;1.35;;;;;;;18.30;52.58;99875.28;5071646;28;20150;-64
2023/03/25 10:59:29;;;;;;;4.03;1.00;;;;;;;18.30;52.82;99871.81;5092797;28;20081;-64
2023/03/25 11:01:56;;;;;;;3.38;1.17;;;;;;;18.33;52.83;99871.66;5092433;28;20024;-64
2023/03/25 11:04:34;;;;;;;2.75;0.85;;;;;;;18.33;52.75;99869.03;5092623;28;20028;-64
2023/03/25 11:06:59;;;;;;;3.97;1.23;;;;;;;18.34;52.54;99876.03;5092592;28;20016;-64
2023/03/25 11:09:29;;;;;;;4.20;1.23;;;;;;;18.35;52.54;99867.19;5092291;28;20054;-64
2023/03/25 11:11:58;;;;;;;3.20;0.93;;;;;;;18.37;52.90;99871.47;5092152;28;20545;-64
2023/03/25 11:14:26;;;;;;;3.40;1.08;;;;;;;18.37;52.81;99860.03;5091847;28;20036;-64
2023/03/25 11:17:15;;;;;;;2.20;0.80;;;;;;;18.39;52.81;99852.91;5092195;28;20032;-64
2023/03/25 11:20:00;;;;;;;4.00;1.27;;;;;;;18.42;52.80;99857.19;5092302;28;20031;-64
2023/03/25 11:22:31;;;;;;;3.08;0.95;;;;;;;18.43;52.71;99850.97;5092131;28;20020;-64
2023/03/25 11:25:05;;;;;;;2.85;1.00;;;;;;;18.43;52.56;99843.94;5092275;28;20058;-63
2023/03/25 11:27:43;;;;;;;2.97;0.93;;;;;;;18.44;52.70;99845.63;5092163;28;20378;-64
2023/03/25 11:30:16;;;;;;;2.70;1.23;;;;;;;18.45;52.81;99842.06;5110181;28;20102;-63
2023/03/25 11:32:41;;;;;;;3.50;1.13;;;;;;;18.46;53.02;99833.19;5112282;28;20079;-64
2023/03/25 11:35:13;;;;;;;2.00;0.70;;;;;;;18.47;52.66;99823.50;5110940;28;20051;-63
2023/03/25 11:37:47;;;;;;;2.08;0.80;;;;;;;18.47;52.83;99808.53;5112737;28;20054;-64
2023/03/25 11:40:16;;;;;;;2.35;1.00;;;;;;;18.50;52.71;99813.66;5112328;28;20028;-64
2023/03/25 11:42:48;;;;;;;2.40;0.98;;;;;;;18.50;52.84;99789.88;5112071;28;20038;-64
2023/03/25 11:45:23;;;;;;;3.50;1.10;;;;;;;18.51;52.73;99782.81;5111948;28;20028;-64
2023/03/25 11:47:50;;;;;;;3.20;1.13;;;;;;;18.52;52.59;99788.03;5112483;28;20034;-64
2023/03/25 11:50:24;;;;;;;3.65;0.90;;;;;;;18.55;52.74;99787.00;5112390;28;20039;-64